Time;durP1;ratioP1;P1;durP2;ratioP2;P2;SDS_P1;SDS_P2;PMS_P1;PMS_P2;Temp;Humidity;BMP_temperature;BMP_pressure;BME280_temperature;BME280_humidity;BME280_pressure;Samples;Min_cycle;Max_cycle;Signal;HPM_P1;HPM_P2
2023/01/27 00:00:54;;;;;;;0.62;0.62;;;1.30;99.90;;;;;;4431096;32;20184;-73
2023/01/27 00:03:20;;;;;;;0.62;0.62;;;1.20;99.90;;;;;;4418643;32;20080;-72
2023/01/27 00:05:46;;;;;;;0.90;0.90;;;1.20;99.90;;;;;;4420500;32;20089;-73
2023/01/27 00:08:12;;;;;;;0.57;0.57;;;1.20;99.90;;;;;;4425331;32;20081;-75
2023/01/27 00:10:38;;;;;;;3.33;1.45;;;1.20;99.90;;;;;;4425375;32;20609;-75
2023/01/27 00:13:35;;;;;;;0.73;0.73;;;1.30;99.90;;;;;;4411960;32;20440;-72
2023/01/27 00:15:49;;;;;;;1.23;1.15;;;1.30;99.90;;;;;;4411171;32;20484;-75
2023/01/27 00:18:14;;;;;;;26.10;1.85;;;1.30;99.90;;;;;;4427600;32;20645;-73
2023/01/27 00:24:42;;;;;;;2.53;1.02;;;1.30;99.90;;;;;;4417456;32;20069;-73
2023/01/27 00:26:14;;;;;;;4.05;1.80;;;1.30;99.90;;;;;;4417538;32;20105;-75
2023/01/27 00:28:40;;;;;;;1.52;1.42;;;1.40;99.90;;;;;;4430073;32;20106;-73
2023/01/27 00:33:24;;;;;;;0.75;0.75;;;1.40;99.90;;;;;;4425375;32;20092;-73
2023/01/27 00:33:55;;;;;;;2.37;1.42;;;1.50;99.90;;;;;;4406413;32;20543;-73
2023/01/27 00:36:20;;;;;;;0.70;0.70;;;1.60;99.90;;;;;;4415874;32;20105;-72
2023/01/27 00:38:46;;;;;;;0.60;0.60;;;1.50;99.90;;;;;;4430743;32;20541;-73
2023/01/27 00:41:18;;;;;;;0.50;0.50;;;1.50;99.90;;;;;;4420926;32;20093;-72
2023/01/27 00:43:44;;;;;;;0.70;0.70;;;1.50;99.90;;;;;;4414999;32;20073;-72
2023/01/27 00:46:10;;;;;;;0.70;0.70;;;1.50;99.90;;;;;;4425772;32;20977;-74
2023/01/27 00:48:35;;;;;;;0.50;0.50;;;1.50;99.90;;;;;;4429115;32;20089;-73
2023/01/27 00:51:01;;;;;;;0.70;0.70;;;1.50;99.90;;;;;;4428529;32;20065;-74
2023/01/27 00:53:26;;;;;;;0.70;0.70;;;1.50;99.90;;;;;;4429874;32;20425;-74
2023/01/27 00:55:52;;;;;;;0.50;0.50;;;1.60;99.90;;;;;;4429774;32;20093;-73
2023/01/27 00:58:17;;;;;;;1.12;1.10;;;1.60;99.90;;;;;;4431091;32;20089;-73
2023/01/27 01:00:44;;;;;;;0.93;0.93;;;1.60;99.90;;;;;;4428976;32;20528;-73
2023/01/27 01:03:09;;;;;;;0.50;0.50;;;1.60;99.90;;;;;;4421329;32;20560;-73
2023/01/27 01:05:35;;;;;;;0.55;0.55;;;1.60;99.90;;;;;;4418790;32;20081;-72
2023/01/27 01:08:00;;;;;;;0.62;0.62;;;1.50;99.90;;;;;;4424082;32;20572;-74
2023/01/27 01:10:25;;;;;;;0.68;0.68;;;1.50;99.90;;;;;;4423815;32;20077;-72
2023/01/27 01:12:51;;;;;;;0.80;0.80;;;1.50;99.90;;;;;;4413494;32;20081;-73
2023/01/27 01:15:16;;;;;;;0.82;0.82;;;1.60;99.90;;;;;;4421535;32;20078;-72
2023/01/27 01:17:42;;;;;;;0.50;0.50;;;1.60;99.90;;;;;;4429505;32;20490;-73
2023/01/27 01:20:08;;;;;;;0.75;0.75;;;1.60;99.90;;;;;;4428345;32;20092;-73
2023/01/27 01:22:33;;;;;;;1.35;0.50;;;1.60;99.90;;;;;;4430400;32;20069;-73
2023/01/27 01:24:59;;;;;;;0.68;0.68;;;1.60;99.90;;;;;;4427629;32;20517;-74
2023/01/27 01:27:25;;;;;;;0.50;0.50;;;1.60;99.90;;;;;;4432180;32;20127;-73
2023/01/27 01:29:50;;;;;;;0.40;0.40;;;1.60;99.90;;;;;;4430312;32;20089;-73
2023/01/27 01:32:16;;;;;;;3.12;1.15;;;1.60;99.90;;;;;;4422484;32;20066;-73
2023/01/27 01:34:42;;;;;;;1.95;1.12;;;1.50;99.90;;;;;;4416593;32;20481;-74
2023/01/27 01:37:08;;;;;;;0.43;0.43;;;1.70;99.90;;;;;;4419820;32;20086;-74
2023/01/27 01:39:33;;;;;;;0.50;0.50;;;1.80;99.90;;;;;;4427241;32;20069;-74
2023/01/27 01:41:59;;;;;;;0.60;0.60;;;1.80;99.90;;;;;;4413626;32;20080;-73
2023/01/27 01:44:27;;;;;;;0.73;0.73;;;1.70;99.90;;;;;;4414503;32;20104;-73
2023/01/27 01:46:53;;;;;;;0.60;0.60;;;1.60;99.90;;;;;;4427115;32;20089;-73
2023/01/27 01:49:25;;;;;;;0.50;0.50;;;1.60;99.90;;;;;;4428823;32;20096;-74
2023/01/27 01:51:56;;;;;;;0.82;0.82;;;1.60;99.90;;;;;;4427879;32;20517;-74
2023/01/27 01:54:27;;;;;;;0.70;0.70;;;1.60;99.90;;;;;;4431612;32;20143;-74
2023/01/27 01:57:15;;;;;;;0.50;0.50;;;1.60;99.90;;;;;;4431142;32;20065;-74
2023/01/27 01:59:49;;;;;;;1.05;1.05;;;1.70;99.90;;;;;;4416667;32;20081;-74
2023/01/27 02:02:20;;;;;;;1.58;1.05;;;1.70;99.90;;;;;;4425708;32;20105;-73
2023/01/27 02:05:07;;;;;;;0.80;0.80;;;1.70;99.90;;;;;;4418011;32;20072;-73
2023/01/27 02:07:39;;;;;;;0.43;0.43;;;1.70;99.90;;;;;;4421752;32;20128;-74
2023/01/27 02:10:05;;;;;;;0.40;0.40;;;1.70;99.90;;;;;;4425670;32;20081;-74
2023/01/27 02:12:30;;;;;;;5.55;1.77;;;1.70;99.90;;;;;;4410628;32;20186;-73
2023/01/27 02:14:57;;;;;;;1.12;1.02;;;1.60;99.90;;;;;;4416320;32;20074;-74
2023/01/27 02:17:23;;;;;;;0.60;0.60;;;1.60;99.90;;;;;;4431191;32;20525;-74
2023/01/27 02:20:28;;;;;;;1.30;1.20;;;1.60;99.90;;;;;;4428724;32;20097;-74
2023/01/27 02:23:03;;;;;;;0.60;0.60;;;1.60;99.90;;;;;;4414896;32;20072;-74
2023/01/27 02:25:57;;;;;;;0.70;0.70;;;1.60;99.90;;;;;;4427918;32;20112;-73
2023/01/27 02:28:27;;;;;;;0.82;0.65;;;1.70;99.90;;;;;;4416951;32;20081;-74
2023/01/27 02:30:52;;;;;;;0.93;0.93;;;1.70;99.90;;;;;;4427971;32;20583;-74
2023/01/27 02:33:18;;;;;;;1.05;0.98;;;1.60;99.90;;;;;;4417209;32;20061;-73
2023/01/27 02:36:06;;;;;;;0.90;0.73;;;1.60;99.90;;;;;;4416953;32;20077;-73
2023/01/27 02:38:37;;;;;;;0.50;0.50;;;1.60;99.90;;;;;;4417846;32;20078;-74
2023/01/27 02:41:13;;;;;;;0.60;0.60;;;1.50;99.90;;;;;;4420177;32;20451;-74
2023/01/27 02:43:38;;;;;;;0.40;0.40;;;1.50;99.90;;;;;;4416270;32;20088;-73
2023/01/27 02:46:04;;;;;;;0.50;0.50;;;1.60;99.90;;;;;;4427769;32;20092;-73
2023/01/27 02:48:29;;;;;;;0.52;0.52;;;1.70;99.90;;;;;;4432147;32;20081;-74
2023/01/27 02:50:55;;;;;;;0.52;0.52;;;1.70;99.90;;;;;;4430806;32;20125;-74
2023/01/27 02:53:20;;;;;;;1.73;0.88;;;1.70;99.90;;;;;;4433037;32;20363;-74
2023/01/27 02:55:46;;;;;;;1.40;0.95;;;1.70;99.90;;;;;;4430665;32;20139;-72
2023/01/27 02:58:14;;;;;;;0.47;0.47;;;1.70;99.90;;;;;;4433547;32;20140;-73
2023/01/27 03:00:39;;;;;;;0.60;0.60;;;1.60;99.90;;;;;;4430723;32;20089;-74
2023/01/27 03:03:05;;;;;;;2.00;0.73;;;1.60;99.90;;;;;;4421648;32;20184;-73
2023/01/27 03:05:30;;;;;;;0.90;0.90;;;1.60;99.90;;;;;;4421636;32;20785;-73
2023/01/27 03:07:56;;;;;;;0.55;0.55;;;1.60;99.90;;;;;;4428407;32;20153;-73
2023/01/27 03:10:21;;;;;;;0.57;0.57;;;1.60;99.90;;;;;;4422097;32;20064;-73
2023/01/27 03:12:46;;;;;;;0.50;0.50;;;1.70;99.90;;;;;;4413216;32;20279;-73
2023/01/27 03:18:15;;;;;;;0.47;0.47;;;1.80;99.90;;;;;;4420184;32;20559;-74
2023/01/27 03:20:43;;;;;;;0.57;0.57;;;1.80;99.90;;;;;;4432935;32;20483;-73
2023/01/27 03:23:09;;;;;;;0.40;0.40;;;1.80;99.90;;;;;;4431237;32;20077;-73
2023/01/27 03:25:35;;;;;;;3.72;1.58;;;1.80;99.90;;;;;;4429412;32;20085;-74
2023/01/27 03:28:00;;;;;;;1.67;0.90;;;1.80;99.90;;;;;;4428502;32;20089;-74
2023/01/27 03:30:27;;;;;;;0.80;0.80;;;1.80;99.90;;;;;;4432885;32;20077;-74
2023/01/27 03:32:53;;;;;;;0.75;0.75;;;1.80;99.90;;;;;;4422583;32;20073;-74
2023/01/27 03:35:19;;;;;;;0.52;0.52;;;1.80;99.90;;;;;;4418950;32;20070;-74
2023/01/27 03:46:33;;;;;;;0.50;0.50;;;1.80;99.90;;;;;;4413832;32;20117;-73
2023/01/27 03:48:52;;;;;;;0.60;0.60;;;1.80;99.90;;;;;;4416989;32;20086;-73
2023/01/27 03:51:21;;;;;;;0.65;0.65;;;1.70;99.90;;;;;;4430912;32;20466;-74
2023/01/27 03:53:46;;;;;;;2.30;1.25;;;1.70;99.90;;;;;;4431081;32;20084;-73
2023/01/27 03:56:13;;;;;;;0.60;0.60;;;1.60;99.90;;;;;;4430620;32;20552;-74
2023/01/27 03:58:38;;;;;;;0.50;0.50;;;1.70;99.90;;;;;;4430476;32;20093;-73
2023/01/27 04:01:10;;;;;;;0.62;0.62;;;1.70;99.90;;;;;;4432986;32;20065;-74
2023/01/27 04:07:24;;;;;;;0.73;0.73;;;1.90;99.90;;;;;;4405856;32;20147;-73
2023/01/27 04:09:11;;;;;;;0.50;0.50;;;1.90;99.90;;;;;;4420372;32;20081;-74
2023/01/27 04:12:08;;;;;;;0.80;0.80;;;2.00;99.90;;;;;;4417196;32;20111;-73
2023/01/27 04:14:26;;;;;;;0.50;0.50;;;1.90;99.90;;;;;;4403101;32;20072;-73
2023/01/27 04:16:54;;;;;;;0.52;0.52;;;1.90;99.90;;;;;;4431059;32;20235;-75
2023/01/27 04:19:20;;;;;;;0.50;0.50;;;1.80;99.90;;;;;;4431188;32;20131;-74
2023/01/27 04:21:46;;;;;;;1.20;0.95;;;1.90;99.90;;;;;;4431804;32;20607;-74
2023/01/27 04:24:15;;;;;;;0.47;0.47;;;1.80;99.90;;;;;;4434053;32;20108;-74
2023/01/27 04:26:42;;;;;;;5.57;1.23;;;1.80;99.90;;;;;;4429199;32;20069;-74
2023/01/27 04:29:08;;;;;;;0.40;0.40;;;1.90;99.90;;;;;;4430099;32;20072;-73
2023/01/27 04:31:34;;;;;;;0.50;0.50;;;1.90;99.90;;;;;;4427808;32;20115;-74
2023/01/27 04:33:59;;;;;;;0.50;0.50;;;2.00;99.90;;;;;;4420772;32;20093;-73
2023/01/27 04:36:25;;;;;;;0.80;0.80;;;2.00;99.90;;;;;;4415891;32;20069;-74
2023/01/27 04:38:50;;;;;;;0.50;0.50;;;2.00;99.90;;;;;;4428701;32;20106;-74
2023/01/27 04:41:16;;;;;;;0.52;0.52;;;1.90;99.90;;;;;;4418010;32;20060;-73
2023/01/27 04:43:41;;;;;;;0.98;0.80;;;2.00;99.90;;;;;;4410635;32;20115;-73
2023/01/27 04:46:07;;;;;;;0.47;0.47;;;2.00;99.90;;;;;;4425056;32;20089;-74
2023/01/27 04:48:32;;;;;;;0.55;0.55;;;2.10;99.90;;;;;;4429793;32;20135;-74
2023/01/27 04:50:58;;;;;;;0.50;0.50;;;2.10;99.90;;;;;;4430580;32;20171;-73
2023/01/27 04:53:24;;;;;;;0.85;0.85;;;2.10;99.90;;;;;;4429522;32;20252;-75
2023/01/27 04:55:49;;;;;;;0.50;0.50;;;2.10;99.90;;;;;;4430681;32;20065;-74
2023/01/27 04:58:16;;;;;;;0.50;0.50;;;2.10;99.90;;;;;;4429745;32;20082;-74
2023/01/27 05:00:43;;;;;;;0.40;0.40;;;2.10;99.90;;;;;;4429982;32;20155;-75
2023/01/27 05:03:10;;;;;;;1.50;1.30;;;2.10;99.90;;;;;;4421441;32;20112;-72
2023/01/27 05:05:36;;;;;;;0.40;0.40;;;2.10;99.90;;;;;;4418140;32;20081;-73
2023/01/27 05:08:06;;;;;;;0.50;0.50;;;2.10;99.90;;;;;;4427449;32;20081;-74
2023/01/27 05:10:32;;;;;;;0.50;0.50;;;2.10;99.90;;;;;;4422493;32;20084;-74
2023/01/27 05:12:58;;;;;;;0.50;0.50;;;2.10;99.90;;;;;;4414922;32;20703;-73
2023/01/27 05:15:24;;;;;;;0.40;0.40;;;2.00;99.90;;;;;;4420335;32;20086;-74
2023/01/27 05:17:49;;;;;;;0.55;0.55;;;2.00;99.90;;;;;;4427907;32;20082;-73
2023/01/27 05:20:15;;;;;;;0.40;0.40;;;2.00;99.90;;;;;;4430635;32;20089;-73
2023/01/27 05:22:41;;;;;;;1.35;1.05;;;2.00;99.90;;;;;;4400251;32;20258;-72
2023/01/27 05:25:07;;;;;;;0.50;0.50;;;1.90;99.90;;;;;;4392657;32;20164;-72
2023/01/27 05:27:34;;;;;;;0.60;0.60;;;1.80;99.90;;;;;;4394583;32;20073;-73
2023/01/27 05:29:59;;;;;;;6.45;0.90;;;1.80;99.90;;;;;;4388071;32;20061;-73
2023/01/27 05:32:25;;;;;;;1.02;0.95;;;1.90;99.90;;;;;;4393138;32;20907;-73
2023/01/27 05:34:50;;;;;;;0.50;0.50;;;2.00;99.90;;;;;;4376979;32;20434;-72
2023/01/27 05:37:15;;;;;;;7.97;1.52;;;2.10;99.90;;;;;;4401725;32;20094;-73
2023/01/27 05:39:41;;;;;;;0.60;0.60;;;2.10;99.90;;;;;;4428161;32;20471;-73
2023/01/27 05:42:06;;;;;;;2.33;1.12;;;2.00;99.90;;;;;;4410467;32;20123;-74
2023/01/27 05:44:32;;;;;;;1.33;1.08;;;2.00;99.90;;;;;;4412015;32;20086;-73
2023/01/27 05:46:57;;;;;;;0.88;0.88;;;2.00;99.90;;;;;;4427438;32;20116;-74
2023/01/27 05:49:23;;;;;;;1.30;0.65;;;1.90;99.90;;;;;;4429874;32;20082;-74
2023/01/27 05:51:48;;;;;;;0.73;0.73;;;1.90;99.90;;;;;;4425017;32;20600;-73
2023/01/27 05:54:14;;;;;;;0.50;0.50;;;1.90;99.90;;;;;;4388881;32;20737;-73
2023/01/27 05:56:39;;;;;;;0.50;0.50;;;1.80;99.90;;;;;;4399910;32;20423;-74
2023/01/27 05:59:05;;;;;;;1.95;0.77;;;1.90;99.90;;;;;;4430745;32;20077;-75
2023/01/27 06:01:32;;;;;;;0.52;0.52;;;2.00;99.90;;;;;;4417395;32;20081;-73
2023/01/27 06:03:58;;;;;;;2.50;1.45;;;1.90;99.90;;;;;;4393198;32;20085;-73
2023/01/27 06:06:26;;;;;;;5.68;1.60;;;1.90;99.90;;;;;;4383013;32;20085;-73
2023/01/27 06:08:52;;;;;;;12.80;1.87;;;2.00;99.90;;;;;;4384032;32;20140;-72
2023/01/27 06:11:18;;;;;;;2.35;1.02;;;2.00;99.90;;;;;;4372579;32;20914;-73
2023/01/27 06:13:44;;;;;;;1.55;1.15;;;2.00;99.90;;;;;;4365949;32;20592;-73
2023/01/27 06:16:13;;;;;;;2.65;1.35;;;2.00;99.90;;;;;;4378290;32;20092;-73
2023/01/27 06:18:39;;;;;;;4.65;1.30;;;2.00;99.90;;;;;;4344958;32;20193;-72
2023/01/27 06:21:06;;;;;;;0.70;0.70;;;1.90;99.90;;;;;;4350111;32;20223;-73
2023/01/27 06:23:31;;;;;;;4.95;1.33;;;2.00;99.90;;;;;;4324996;32;20102;-72
2023/01/27 06:26:05;;;;;;;0.50;0.50;;;1.90;99.90;;;;;;4329849;32;20089;-73
2023/01/27 06:28:31;;;;;;;1.50;1.02;;;2.00;99.90;;;;;;4346687;32;20354;-73
2023/01/27 06:31:18;;;;;;;0.50;0.50;;;2.00;99.90;;;;;;4305875;32;20298;-72
2023/01/27 06:33:43;;;;;;;1.10;0.90;;;2.00;99.90;;;;;;4334244;32;20540;-72
2023/01/27 06:36:13;;;;;;;1.23;1.12;;;2.00;99.90;;;;;;4347329;32;20243;-73
2023/01/27 06:38:39;;;;;;;1.75;1.15;;;2.10;99.90;;;;;;4357061;32;20769;-72
2023/01/27 06:41:05;;;;;;;0.50;0.50;;;2.10;99.90;;;;;;4356887;32;20333;-73
2023/01/27 06:43:32;;;;;;;0.40;0.40;;;2.00;99.90;;;;;;4367071;32;20109;-73
2023/01/27 06:45:59;;;;;;;0.40;0.40;;;2.00;99.90;;;;;;4380447;32;20888;-72
2023/01/27 06:48:26;;;;;;;0.50;0.50;;;2.00;99.90;;;;;;4386743;32;20077;-72
2023/01/27 06:50:53;;;;;;;1.08;1.05;;;2.00;99.90;;;;;;4386497;32;20108;-73
2023/01/27 06:53:18;;;;;;;0.50;0.50;;;2.00;99.90;;;;;;4392421;32;20187;-72
2023/01/27 06:55:45;;;;;;;0.55;0.55;;;2.00;99.90;;;;;;4395530;32;23261;-74
2023/01/27 06:58:13;;;;;;;2.62;0.90;;;2.10;99.90;;;;;;4397772;32;20130;-73
2023/01/27 07:00:39;;;;;;;0.50;0.50;;;2.10;99.90;;;;;;4385225;32;20105;-73
2023/01/27 07:03:05;;;;;;;0.70;0.70;;;2.20;99.90;;;;;;4372528;32;20318;-73
2023/01/27 07:05:32;;;;;;;0.60;0.60;;;2.30;99.90;;;;;;4382562;32;20224;-73
2023/01/27 07:07:58;;;;;;;0.55;0.55;;;2.30;99.90;;;;;;4394828;32;20159;-73
2023/01/27 07:10:24;;;;;;;0.70;0.70;;;2.40;99.90;;;;;;4398909;32;20589;-74
2023/01/27 07:12:49;;;;;;;0.50;0.50;;;2.40;99.90;;;;;;4400621;32;20401;-74
2023/01/27 07:15:15;;;;;;;0.50;0.50;;;2.40;99.90;;;;;;4404763;32;20420;-74
2023/01/27 07:17:40;;;;;;;1.15;0.80;;;2.40;99.90;;;;;;4410035;32;20596;-73
2023/01/27 07:20:10;;;;;;;2.83;1.00;;;2.40;99.90;;;;;;4393232;32;20199;-74
2023/01/27 07:22:35;;;;;;;0.40;0.40;;;2.30;99.90;;;;;;4408665;32;20096;-74
2023/01/27 07:25:02;;;;;;;0.47;0.47;;;2.30;99.90;;;;;;4415902;32;20274;-74
2023/01/27 07:27:28;;;;;;;0.45;0.45;;;2.40;99.90;;;;;;4409804;32;20144;-73
2023/01/27 07:29:53;;;;;;;0.50;0.50;;;2.50;99.90;;;;;;4398280;32;20265;-74
2023/01/27 07:32:19;;;;;;;0.45;0.45;;;2.50;99.90;;;;;;4397405;32;20129;-73
2023/01/27 07:34:44;;;;;;;0.40;0.40;;;2.60;99.90;;;;;;4382000;32;20081;-73
2023/01/27 07:37:10;;;;;;;0.50;0.50;;;2.60;99.90;;;;;;4401390;32;20844;-74
2023/01/27 07:39:36;;;;;;;0.52;0.52;;;2.60;99.90;;;;;;4404857;32;20183;-74
2023/01/27 07:42:03;;;;;;;0.47;0.47;;;2.80;99.90;;;;;;4400762;32;20108;-74
2023/01/27 07:44:29;;;;;;;0.47;0.47;;;2.80;99.90;;;;;;4399332;32;20752;-73
2023/01/27 07:46:54;;;;;;;2.22;1.10;;;2.80;99.90;;;;;;4403473;32;20089;-75
2023/01/27 07:49:20;;;;;;;0.60;0.60;;;2.80;99.90;;;;;;4389001;32;20403;-73
2023/01/27 07:51:45;;;;;;;0.50;0.50;;;2.90;99.90;;;;;;4395951;32;20727;-74
2023/01/27 07:54:11;;;;;;;0.55;0.55;;;2.80;99.90;;;;;;4397699;32;20061;-73
2023/01/27 07:56:37;;;;;;;5.45;1.62;;;2.90;99.90;;;;;;4399840;32;20588;-73
2023/01/27 07:59:03;;;;;;;0.60;0.60;;;2.90;99.90;;;;;;4393823;32;20149;-73
2023/01/27 08:01:29;;;;;;;2.70;0.77;;;2.90;99.90;;;;;;4385409;32;20097;-73
2023/01/27 08:03:54;;;;;;;0.50;0.50;;;2.90;99.90;;;;;;4383375;32;20286;-73
2023/01/27 08:06:20;;;;;;;0.40;0.40;;;3.00;99.90;;;;;;4389437;32;20193;-74
2023/01/27 08:08:45;;;;;;;5.65;2.33;;;3.00;99.90;;;;;;4398141;32;20413;-74
2023/01/27 08:11:13;;;;;;;1.08;0.80;;;3.00;99.90;;;;;;4403505;32;20093;-74
2023/01/27 08:13:39;;;;;;;1.17;0.93;;;3.10;99.90;;;;;;4398886;32;20498;-74
2023/01/27 08:16:07;;;;;;;0.60;0.60;;;3.10;99.90;;;;;;4402506;32;20136;-73
2023/01/27 08:18:33;;;;;;;0.52;0.52;;;3.10;99.90;;;;;;4398498;32;20125;-73
2023/01/27 08:21:01;;;;;;;0.40;0.40;;;3.10;99.90;;;;;;4393291;32;20343;-73
2023/01/27 08:23:30;;;;;;;1.08;1.00;;;3.20;99.90;;;;;;4403785;32;20971;-73
2023/01/27 08:25:58;;;;;;;0.40;0.40;;;3.20;99.90;;;;;;4400920;32;20164;-73
2023/01/27 08:28:25;;;;;;;1.90;1.33;;;3.30;99.90;;;;;;4400111;32;20259;-73
2023/01/27 08:30:51;;;;;;;1.75;1.27;;;3.30;99.90;;;;;;4383030;32;20112;-73
2023/01/27 08:33:18;;;;;;;1.17;0.70;;;3.30;99.90;;;;;;4366506;32;20808;-71
2023/01/27 08:35:44;;;;;;;1.17;0.95;;;3.40;99.90;;;;;;4379799;32;20099;-73
2023/01/27 08:38:11;;;;;;;0.50;0.50;;;3.40;99.90;;;;;;4389625;32;20118;-73
2023/01/27 08:40:38;;;;;;;0.57;0.57;;;3.40;99.90;;;;;;4399698;32;20092;-74
2023/01/27 08:43:04;;;;;;;38.75;2.95;;;3.40;99.90;;;;;;4391855;32;20106;-73
2023/01/27 08:45:29;;;;;;;1.37;0.77;;;3.40;99.90;;;;;;4403146;32;20584;-74
2023/01/27 08:47:55;;;;;;;0.60;0.60;;;3.40;99.90;;;;;;4397425;32;20069;-73
2023/01/27 08:50:20;;;;;;;1.15;1.05;;;3.40;99.90;;;;;;4392441;32;20085;-74
2023/01/27 08:52:46;;;;;;;0.98;0.80;;;3.40;99.90;;;;;;4400187;32;20639;-74
2023/01/27 08:55:11;;;;;;;1.80;1.00;;;3.40;99.90;;;;;;4398949;32;20275;-74
2023/01/27 08:57:37;;;;;;;0.55;0.52;;;3.40;99.90;;;;;;4409037;32;20105;-74
2023/01/27 09:00:05;;;;;;;0.50;0.45;;;3.40;99.90;;;;;;4388006;32;20232;-74
2023/01/27 09:02:31;;;;;;;2.08;0.73;;;3.50;99.90;;;;;;4381458;32;20346;-73
2023/01/27 09:04:57;;;;;;;0.40;0.40;;;3.50;99.90;;;;;;4376280;32;20227;-74
2023/01/27 09:07:22;;;;;;;1.52;1.10;;;3.50;99.90;;;;;;4394831;32;20093;-75
2023/01/27 09:09:48;;;;;;;1.27;0.73;;;3.50;99.90;;;;;;4400061;32;20199;-74
2023/01/27 09:12:14;;;;;;;1.15;1.02;;;3.50;99.90;;;;;;4396413;32;20118;-74
2023/01/27 09:14:40;;;;;;;0.50;0.50;;;3.60;99.90;;;;;;4399433;32;20122;-74
2023/01/27 09:17:05;;;;;;;1.45;1.23;;;3.60;99.90;;;;;;4400155;32;20552;-74
2023/01/27 09:19:31;;;;;;;0.50;0.50;;;3.70;99.90;;;;;;4397243;32;20060;-73
2023/01/27 09:21:56;;;;;;;0.57;0.57;;;3.70;99.90;;;;;;4399544;32;20230;-74
2023/01/27 09:24:22;;;;;;;0.32;0.32;;;3.80;99.90;;;;;;4401817;32;20310;-74
2023/01/27 09:26:47;;;;;;;1.45;0.95;;;3.80;99.90;;;;;;4401159;32;20182;-73
2023/01/27 09:29:13;;;;;;;0.40;0.40;;;3.90;99.90;;;;;;4398214;32;20802;-73
2023/01/27 09:31:38;;;;;;;0.40;0.40;;;3.90;99.90;;;;;;4376176;32;20516;-73
2023/01/27 09:34:04;;;;;;;1.00;0.80;;;4.00;99.90;;;;;;4374203;32;20237;-73
2023/01/27 09:36:32;;;;;;;0.40;0.40;;;4.00;99.90;;;;;;4381192;32;20368;-73
2023/01/27 09:39:02;;;;;;;0.73;0.73;;;3.90;99.90;;;;;;4403112;32;20416;-74
2023/01/27 09:41:40;;;;;;;0.50;0.50;;;3.80;99.90;;;;;;4409526;32;20081;-73
2023/01/27 09:44:28;;;;;;;1.55;0.62;;;3.90;99.90;;;;;;4403635;32;20208;-73
2023/01/27 09:47:22;;;;;;;0.50;0.50;;;3.90;99.90;;;;;;4398229;32;20089;-73
2023/01/27 09:50:12;;;;;;;0.30;0.30;;;4.00;99.90;;;;;;4376704;32;20116;-73
2023/01/27 09:53:06;;;;;;;0.40;0.40;;;3.90;99.90;;;;;;4397878;32;20239;-73
2023/01/27 09:55:41;;;;;;;0.40;0.40;;;4.00;99.90;;;;;;4391831;32;20750;-74
2023/01/27 09:58:18;;;;;;;0.43;0.43;;;3.90;99.90;;;;;;4411691;32;20090;-74
2023/01/27 10:01:10;;;;;;;0.40;0.40;;;4.00;99.90;;;;;;4390283;32;20280;-74
2023/01/27 10:04:03;;;;;;;0.62;0.62;;;4.00;99.90;;;;;;4363793;32;20251;-72
2023/01/27 10:06:48;;;;;;;0.40;0.40;;;4.00;99.90;;;;;;4394870;32;20678;-73
2023/01/27 10:09:22;;;;;;;0.40;0.40;;;4.00;99.90;;;;;;4410399;32;20080;-73
2023/01/27 10:12:12;;;;;;;0.45;0.45;;;4.00;99.90;;;;;;4405277;32;20104;-73
2023/01/27 10:14:54;;;;;;;0.40;0.40;;;4.00;99.90;;;;;;4395159;32;20065;-73
2023/01/27 10:17:37;;;;;;;0.40;0.40;;;4.00;99.90;;;;;;4404739;32;20126;-73
2023/01/27 10:20:31;;;;;;;0.55;0.55;;;4.00;99.90;;;;;;4395456;32;20143;-73
2023/01/27 10:23:32;;;;;;;0.50;0.50;;;4.00;99.90;;;;;;4392986;32;20600;-74
2023/01/27 10:26:19;;;;;;;0.40;0.40;;;4.10;99.90;;;;;;4392803;32;20265;-73
2023/01/27 10:28:50;;;;;;;0.50;0.50;;;4.10;99.90;;;;;;4393362;32;20621;-73
2023/01/27 10:31:31;;;;;;;0.50;0.50;;;4.10;99.90;;;;;;4379074;32;20132;-73
2023/01/27 10:34:03;;;;;;;0.70;0.70;;;4.10;99.90;;;;;;4367221;32;20252;-73
2023/01/27 10:36:41;;;;;;;0.80;0.80;;;4.10;99.90;;;;;;4387257;32;20093;-73
2023/01/27 10:39:35;;;;;;;0.40;0.40;;;4.10;99.90;;;;;;4411458;32;20130;-73
2023/01/27 10:42:16;;;;;;;0.40;0.40;;;4.10;99.90;;;;;;4393193;32;20100;-73
2023/01/27 10:44:56;;;;;;;;;;;4.10;99.90;;;;;;4406761;32;20086;-73
2023/01/27 10:47:37;;;;;;;1.20;0.82;;;4.10;99.90;;;;;;4407997;32;19957;-73
2023/01/27 10:50:11;;;;;;;0.60;0.60;;;4.10;99.90;;;;;;4388306;32;20254;-73
2023/01/27 10:52:45;;;;;;;0.40;0.40;;;4.20;99.90;;;;;;4398456;32;20336;-73
2023/01/27 10:55:20;;;;;;;0.60;0.60;;;4.30;99.90;;;;;;4400869;32;20077;-73
2023/01/27 10:57:58;;;;;;;3.83;0.75;;;4.30;99.90;;;;;;4410768;32;20073;-74
2023/01/27 11:00:34;;;;;;;0.40;0.40;;;4.30;99.90;;;;;;4393474;32;20273;-73
2023/01/27 11:03:24;;;;;;;0.40;0.40;;;4.30;99.90;;;;;;4366963;32;20381;-73
2023/01/27 11:05:58;;;;;;;0.50;0.50;;;4.30;99.90;;;;;;4385313;32;20117;-73
2023/01/27 11:08:29;;;;;;;0.50;0.50;;;4.30;99.90;;;;;;4406266;32;20545;-74
2023/01/27 11:11:59;;;;;;;0.40;0.40;;;4.40;99.90;;;;;;4407106;32;20585;-73
2023/01/27 11:13:45;;;;;;;0.40;0.40;;;4.30;99.90;;;;;;4397899;32;20119;-73
2023/01/27 11:16:15;;;;;;;0.77;0.62;;;4.40;99.90;;;;;;4410685;32;20371;-73
2023/01/27 11:18:45;;;;;;;0.40;0.40;;;4.30;99.90;;;;;;4410984;32;20443;-73
2023/01/27 11:21:18;;;;;;;0.50;0.50;;;4.40;99.90;;;;;;4392113;32;20626;-73
2023/01/27 11:23:47;;;;;;;0.80;0.77;;;4.40;99.90;;;;;;4407353;32;20505;-73
2023/01/27 11:26:38;;;;;;;0.57;0.57;;;4.40;99.90;;;;;;4407228;32;20134;-73
2023/01/27 11:29:30;;;;;;;0.40;0.40;;;4.40;99.90;;;;;;4414189;32;20094;-72
2023/01/27 11:32:36;;;;;;;1.52;1.42;;;4.40;99.90;;;;;;4373568;32;20226;-73
2023/01/27 11:35:07;;;;;;;0.40;0.40;;;4.40;99.90;;;;;;4352903;32;20262;-72
2023/01/27 11:37:46;;;;;;;0.50;0.50;;;4.40;99.90;;;;;;4394196;32;20513;-72
2023/01/27 11:40:17;;;;;;;0.60;0.60;;;4.40;99.90;;;;;;4413572;32;20078;-72
2023/01/27 11:42:43;;;;;;;;;;;4.50;99.90;;;;;;4409241;32;88825;-73
2023/01/27 11:45:15;;;;;;;0.82;0.82;;;4.50;99.90;;;;;;4413269;32;20063;-74
2023/01/27 11:47:42;;;;;;;0.40;0.40;;;4.50;99.90;;;;;;4413501;32;20138;-74
2023/01/27 11:50:17;;;;;;;0.50;0.50;;;4.50;99.90;;;;;;4397018;32;20121;-74
2023/01/27 11:52:48;;;;;;;1.15;0.75;;;4.60;99.90;;;;;;4406604;32;20097;-74
2023/01/27 11:55:17;;;;;;;;;;;4.60;99.90;;;;;;4408967;32;20594;-74
2023/01/27 11:57:50;;;;;;;0.45;0.45;;;4.50;99.90;;;;;;4416595;32;19991;-74
2023/01/27 12:00:22;;;;;;;0.60;0.60;;;4.50;99.90;;;;;;4395858;32;20568;-74
2023/01/27 12:02:54;;;;;;;0.60;0.60;;;4.50;99.90;;;;;;4380596;32;20093;-74
2023/01/27 12:05:27;;;;;;;0.80;0.80;;;4.50;99.90;;;;;;4379192;32;20155;-74
2023/01/27 12:07:56;;;;;;;0.30;0.30;;;4.50;99.90;;;;;;4401440;32;20061;-74
2023/01/27 12:10:33;;;;;;;0.40;0.40;;;4.50;99.90;;;;;;4410056;32;20364;-74
2023/01/27 12:13:08;;;;;;;1.10;0.62;;;4.50;99.90;;;;;;4400104;32;20109;-74
2023/01/27 12:15:36;;;;;;;1.25;0.98;;;4.50;99.90;;;;;;4411871;32;20133;-74
2023/01/27 12:18:12;;;;;;;0.60;0.60;;;4.50;99.90;;;;;;4406959;32;20204;-74
2023/01/27 12:20:44;;;;;;;0.30;0.30;;;4.60;99.90;;;;;;4396558;32;20197;-74
2023/01/27 12:23:20;;;;;;;0.40;0.40;;;4.50;99.90;;;;;;4406843;32;20176;-73
2023/01/27 12:25:52;;;;;;;0.32;0.32;;;4.50;99.90;;;;;;4407847;32;20162;-73
2023/01/27 12:28:24;;;;;;;0.40;0.40;;;4.60;99.90;;;;;;4414845;32;20099;-73
2023/01/27 12:30:53;;;;;;;0.40;0.40;;;4.50;99.90;;;;;;4389514;32;20397;-74
2023/01/27 12:33:25;;;;;;;0.50;0.50;;;4.50;99.90;;;;;;4368590;32;20734;-74
2023/01/27 12:35:55;;;;;;;0.75;0.75;;;4.50;99.90;;;;;;4385901;32;20110;-72
2023/01/27 12:38:25;;;;;;;0.50;0.50;;;4.60;99.90;;;;;;4405135;32;20085;-72
2023/01/27 12:41:00;;;;;;;0.47;0.47;;;4.50;99.90;;;;;;4415395;32;20131;-73
2023/01/27 12:43:25;;;;;;;0.50;0.50;;;4.50;99.90;;;;;;4407760;32;20089;-73
2023/01/27 12:46:12;;;;;;;0.70;0.70;;;4.50;99.90;;;;;;4412459;32;20402;-73
2023/01/27 12:49:01;;;;;;;0.50;0.50;;;4.50;99.90;;;;;;4393351;32;20082;-73
2023/01/27 12:51:39;;;;;;;5.07;1.62;;;4.40;99.90;;;;;;4394393;32;20161;-73
2023/01/27 12:54:16;;;;;;;0.40;0.40;;;4.40;99.90;;;;;;4410423;32;20146;-73
2023/01/27 12:56:42;;;;;;;0.73;0.73;;;4.40;99.90;;;;;;4408518;32;20385;-74
2023/01/27 12:59:15;;;;;;;2.72;1.58;;;4.40;99.90;;;;;;4412169;32;21826;-73
2023/01/27 13:01:42;;;;;;;0.50;0.50;;;4.30;99.90;;;;;;4376231;32;20092;-74
2023/01/27 13:04:16;;;;;;;33.10;0.80;;;4.30;99.90;;;;;;4350033;32;20301;-74
2023/01/27 13:07:04;;;;;;;0.40;0.40;;;4.30;99.90;;;;;;4394835;32;20781;-73
2023/01/27 13:09:33;;;;;;;5.10;0.50;;;4.30;99.90;;;;;;4400279;32;20174;-74
2023/01/27 13:12:03;;;;;;;0.60;0.60;;;4.30;99.90;;;;;;4412590;32;20084;-75
2023/01/27 13:14:38;;;;;;;0.32;0.32;;;4.20;99.90;;;;;;4409299;32;20069;-73
2023/01/27 13:17:03;;;;;;;1.87;1.65;;;4.20;99.90;;;;;;4411809;32;20836;-74
2023/01/27 13:19:41;;;;;;;0.40;0.40;;;4.20;99.90;;;;;;4402247;32;20136;-73
2023/01/27 13:22:15;;;;;;;0.40;0.40;;;4.20;99.90;;;;;;4406950;32;20583;-74
2023/01/27 13:24:41;;;;;;;0.43;0.43;;;4.20;99.90;;;;;;4406038;32;20090;-74
2023/01/27 13:27:14;;;;;;;0.47;0.47;;;4.20;99.90;;;;;;4410132;32;20483;-75
2023/01/27 13:29:43;;;;;;;0.50;0.50;;;4.20;99.90;;;;;;4403448;32;20362;-74